Terminal Aerodrome Forecast
Issued by NWS

Current Version | Previous Version | Text Only | Print | Product List | Glossary Off
Versions: 1 2 3 4 5 6 7 8 9 10 11 12 13 14 15 16 17 18 19 20 21 22 23 24 25 26

000
FTUS41 KPBZ 201100
TAFHLG
TAF
KHLG 201137Z 2012/2112 10007KT 6SM -SHRA SCT006 OVC040
      TEMPO 2012/2014 2SM TSRA BKN006 OVC030CB
     FM201500 15007KT P6SM VCSH SCT030 BKN080
     FM201800 22010KT P6SM VCTS BKN040CB
     FM210100 23004KT P6SM SCT040
     FM210700 VRB03KT 4SM BR SCT040=

USA.gov is the U.S. government's official web portal to all federal, state and local government web resources and services.